createdAt,value
2019-06-01T00:00:20.420Z,0.00
2019-06-01T00:00:56.037Z,0.00
2019-06-01T00:01:31.422Z,0.00
2019-06-01T00:02:06.637Z,0.00
2019-06-01T00:02:44.191Z,0.00
2019-06-01T00:03:17.342Z,0.00
2019-06-01T00:03:52.654Z,0.00
2019-06-01T00:04:27.985Z,0.00
2019-06-01T00:05:03.490Z,0.00
2019-06-01T00:05:38.698Z,0.00
2019-06-01T00:06:14.232Z,0.00
2019-06-01T00:06:49.525Z,0.00
2019-06-01T00:07:24.773Z,0.00
2019-06-01T00:07:59.962Z,0.00
2019-06-01T00:08:35.580Z,0.00
2019-06-01T00:09:11.197Z,0.00
2019-06-01T00:09:47.257Z,0.00
2019-06-01T00:10:22.023Z,0.00
2019-06-01T00:10:57.354Z,0.00
2019-06-01T00:11:32.749Z,0.00
2019-06-01T00:12:08.987Z,0.00
2019-06-01T00:12:45.298Z,0.00
2019-06-01T00:13:20.108Z,0.00
2019-06-01T00:13:55.497Z,0.00
2019-06-01T00:14:30.939Z,0.00
2019-06-01T00:15:06.254Z,0.00
2019-06-01T00:15:41.936Z,0.00
2019-06-01T00:16:17.161Z,0.00
2019-06-01T00:16:52.658Z,0.00
2019-06-01T00:17:27.953Z,0.00
2019-06-01T00:18:03.351Z,0.00
2019-06-01T00:18:39.751Z,0.00
2019-06-01T00:19:13.871Z,0.00
2019-06-01T00:19:50.339Z,0.00
2019-06-01T00:20:24.713Z,0.00
2019-06-01T00:21:00.129Z,0.00
2019-06-01T00:21:35.628Z,0.00
2019-06-01T00:22:11.052Z,0.00
2019-06-01T00:22:47.410Z,0.00
2019-06-01T00:23:21.647Z,0.00
2019-06-01T00:23:57.140Z,0.00
2019-06-01T00:24:32.586Z,0.00
2019-06-01T00:25:07.769Z,0.00
2019-06-01T00:25:43.082Z,0.00
2019-06-01T00:26:18.467Z,0.00
2019-06-01T00:26:53.495Z,0.00
2019-06-01T00:27:28.685Z,0.00
2019-06-01T00:28:03.807Z,0.00
2019-06-01T00:28:39.386Z,0.00
2019-06-01T00:29:14.822Z,0.00
2019-06-01T00:29:50.133Z,0.00
2019-06-01T00:30:27.325Z,0.00
2019-06-01T00:31:01.138Z,0.00
2019-06-01T00:31:36.358Z,0.00
2019-06-01T00:32:11.756Z,0.00
2019-06-01T00:32:47.314Z,0.00
2019-06-01T00:33:22.573Z,0.00
2019-06-01T00:33:58.303Z,0.00
2019-06-01T00:34:33.711Z,0.00
2019-06-01T00:35:09.155Z,0.00
2019-06-01T00:35:45.316Z,0.00
2019-06-01T00:36:19.663Z,0.00
2019-06-01T00:36:54.965Z,0.00
2019-06-01T00:37:30.282Z,0.00
2019-06-01T00:38:05.559Z,0.00
2019-06-01T00:38:41.593Z,0.00
2019-06-01T00:39:16.190Z,0.00
2019-06-01T00:39:51.993Z,0.00
2019-06-01T00:40:26.736Z,0.00
2019-06-01T00:41:02.133Z,0.00
2019-06-01T00:41:37.323Z,0.00
2019-06-01T00:42:12.879Z,0.00
2019-06-01T00:42:48.556Z,0.00
2019-06-01T00:43:23.772Z,0.00
2019-06-01T00:43:59.053Z,0.00
2019-06-01T00:44:34.497Z,0.00
2019-06-01T00:45:09.977Z,0.00
2019-06-01T00:45:46.459Z,0.00
2019-06-01T00:46:20.697Z,0.00
2019-06-01T00:46:56.116Z,0.00
2019-06-01T00:47:31.313Z,0.00
2019-06-01T00:48:06.820Z,0.00
2019-06-01T00:48:42.131Z,0.00
2019-06-01T00:49:17.545Z,0.00
2019-06-01T00:49:53.094Z,0.00
2019-06-01T00:50:28.165Z,0.00
2019-06-01T00:51:03.466Z,0.00
2019-06-01T00:51:38.788Z,0.00
2019-06-01T00:52:14.190Z,0.00
2019-06-01T00:52:49.729Z,0.00
2019-06-01T00:53:25.082Z,0.00
2019-06-01T00:54:00.411Z,0.00
2019-06-01T00:54:35.719Z,0.00
2019-06-01T00:55:11.157Z,0.00
2019-06-01T00:55:47.320Z,0.00
2019-06-01T00:56:21.871Z,0.00
2019-06-01T00:56:57.176Z,0.00
2019-06-01T00:57:32.477Z,0.00
2019-06-01T00:58:07.794Z,0.00
2019-06-01T00:58:43.619Z,0.00
2019-06-01T00:59:18.490Z,0.00
2019-06-01T00:59:54.952Z,0.00
2019-06-01T01:00:42.788Z,0.00
2019-06-01T01:01:04.312Z,0.00
2019-06-01T01:01:39.739Z,0.00
2019-06-01T01:02:15.347Z,0.00
2019-06-01T01:02:50.653Z,0.00
2019-06-01T01:03:26.058Z,0.00
2019-06-01T01:04:01.156Z,0.00
2019-06-01T01:04:36.506Z,0.00
2019-06-01T01:05:11.922Z,0.00
2019-06-01T01:05:48.390Z,0.00
2019-06-01T01:06:22.736Z,0.00
2019-06-01T01:06:58.316Z,0.00
2019-06-01T01:07:33.842Z,0.00
2019-06-01T01:08:09.363Z,0.00
2019-06-01T01:08:44.927Z,0.00
2019-06-01T01:09:20.097Z,0.00
2019-06-01T01:09:55.373Z,0.00
2019-06-01T01:10:30.691Z,0.00
2019-06-01T01:11:05.982Z,0.00
2019-06-01T01:11:41.319Z,0.00
2019-06-01T01:12:17.218Z,0.00
2019-06-01T01:12:53.160Z,0.00
2019-06-01T01:13:27.520Z,0.00
2019-06-01T01:14:03.030Z,0.00
2019-06-01T01:14:38.341Z,0.00
2019-06-01T01:15:13.768Z,0.00
2019-06-01T01:15:49.310Z,0.00
2019-06-01T01:16:24.373Z,0.00
2019-06-01T01:16:59.851Z,0.00
2019-06-01T01:17:35.274Z,0.00
2019-06-01T01:18:10.470Z,0.00
2019-06-01T01:18:46.079Z,0.00
2019-06-01T01:19:21.182Z,0.00
2019-06-01T01:19:56.509Z,0.00
2019-06-01T01:20:31.796Z,0.00
2019-06-01T01:21:07.421Z,0.00
2019-06-01T01:21:42.716Z,0.00
2019-06-01T01:22:18.333Z,0.00
2019-06-01T01:22:54.300Z,0.00
2019-06-01T01:23:29.019Z,0.00
2019-06-01T01:24:04.211Z,0.00
2019-06-01T01:24:39.968Z,0.00
2019-06-01T01:25:15.738Z,0.00
2019-06-01T01:25:50.964Z,0.00
2019-06-01T01:26:26.256Z,0.00
2019-06-01T01:27:01.579Z,0.00
2019-06-01T01:27:37.254Z,0.00
2019-06-01T01:28:13.065Z,0.00
2019-06-01T01:28:48.796Z,0.00
2019-06-01T01:29:23.681Z,0.00
2019-06-01T01:29:58.975Z,0.00
2019-06-01T01:30:34.351Z,0.00
2019-06-01T01:31:13.692Z,0.00
2019-06-01T01:31:44.602Z,0.00
2019-06-01T01:32:19.991Z,0.00
2019-06-01T01:32:55.823Z,0.00
2019-06-01T01:33:30.322Z,0.00
2019-06-01T01:34:05.750Z,0.00
2019-06-01T01:34:41.367Z,0.00
2019-06-01T01:35:16.694Z,0.00
2019-06-01T01:35:52.620Z,0.00
2019-06-01T01:36:27.523Z,0.00
2019-06-01T01:37:02.699Z,0.00
2019-06-01T01:37:37.916Z,0.00
2019-06-01T01:38:13.339Z,0.00
2019-06-01T01:38:50.340Z,0.00
2019-06-01T01:39:24.190Z,0.00
2019-06-01T01:39:59.789Z,0.00
2019-06-01T01:40:35.204Z,0.00
2019-06-01T01:41:10.390Z,0.00
2019-06-01T01:41:45.822Z,0.00
2019-06-01T01:42:21.209Z,0.00
2019-06-01T01:42:56.835Z,0.00
2019-06-01T01:43:32.043Z,0.00
2019-06-01T01:44:07.456Z,0.00
2019-06-01T01:44:42.875Z,0.00
2019-06-01T01:45:18.094Z,0.00
2019-06-01T01:45:54.721Z,0.00
2019-06-01T01:46:28.610Z,0.00
2019-06-01T01:47:03.895Z,0.00
2019-06-01T01:47:39.133Z,0.00
2019-06-01T01:48:14.530Z,0.00
2019-06-01T01:48:49.954Z,0.00
2019-06-01T01:49:25.093Z,0.00
2019-06-01T01:50:00.208Z,0.00
2019-06-01T01:50:35.404Z,0.00
2019-06-01T01:51:10.623Z,0.00
2019-06-01T01:51:45.821Z,0.00
2019-06-01T01:52:21.361Z,0.00
2019-06-01T01:52:57.285Z,0.00
2019-06-01T01:53:32.202Z,0.00
2019-06-01T01:54:07.513Z,0.00
2019-06-01T01:54:42.563Z,0.00
2019-06-01T01:55:18.061Z,0.00
2019-06-01T01:55:55.047Z,0.00
2019-06-01T01:56:28.993Z,0.00
2019-06-01T01:57:07.050Z,0.00
2019-06-01T01:57:39.611Z,0.00
2019-06-01T01:58:14.942Z,0.00
2019-06-01T01:58:50.449Z,0.00
2019-06-01T01:59:25.749Z,0.00
2019-06-01T02:00:01.815Z,0.00
2019-06-01T02:00:36.931Z,0.00
2019-06-01T02:01:22.422Z,0.00
2019-06-01T02:01:47.462Z,0.00
2019-06-01T02:02:22.570Z,0.00
2019-06-01T02:02:57.964Z,0.00
2019-06-01T02:03:33.083Z,0.00
2019-06-01T02:04:08.407Z,0.00
2019-06-01T02:04:43.834Z,0.00
2019-06-01T02:05:19.155Z,0.00
2019-06-01T02:05:54.931Z,0.00
2019-06-01T02:06:29.767Z,0.00
2019-06-01T02:07:04.869Z,0.00
2019-06-01T02:07:40.194Z,0.00
2019-06-01T02:08:15.899Z,0.00
2019-06-01T02:08:51.220Z,0.00
2019-06-01T02:09:26.340Z,0.00
2019-06-01T02:10:01.949Z,0.00
2019-06-01T02:10:36.761Z,0.00
2019-06-01T02:11:11.988Z,0.00
2019-06-01T02:11:47.577Z,0.00
2019-06-01T02:12:23.231Z,0.00
2019-06-01T02:12:59.601Z,0.00
2019-06-01T02:13:33.867Z,0.00
2019-06-01T02:14:09.160Z,0.00
2019-06-01T02:14:44.517Z,0.00
2019-06-01T02:15:19.917Z,0.00
2019-06-01T02:15:56.154Z,0.00
2019-06-01T02:16:30.740Z,0.00
2019-06-01T02:17:06.161Z,0.00
2019-06-01T02:17:41.760Z,0.00
2019-06-01T02:18:17.301Z,0.00
2019-06-01T02:18:53.873Z,0.00
2019-06-01T02:19:28.134Z,0.00
2019-06-01T02:20:03.639Z,0.00
2019-06-01T02:20:38.870Z,0.00
2019-06-01T02:21:14.178Z,0.00
2019-06-01T02:21:49.670Z,0.00
2019-06-01T02:22:24.994Z,0.00
2019-06-01T02:23:00.975Z,0.00
2019-06-01T02:23:36.141Z,0.00
2019-06-01T02:24:11.332Z,0.00
2019-06-01T02:24:46.679Z,0.00
2019-06-01T02:25:22.266Z,0.00
2019-06-01T02:25:58.885Z,0.00
2019-06-01T02:26:33.388Z,0.00
2019-06-01T02:27:08.625Z,0.00
2019-06-01T02:27:44.027Z,0.00
2019-06-01T02:28:19.243Z,0.00
2019-06-01T02:28:55.299Z,0.00
2019-06-01T02:29:29.398Z,0.00
2019-06-01T02:30:05.567Z,0.00
2019-06-01T02:30:40.238Z,0.00
2019-06-01T02:31:15.524Z,0.00
2019-06-01T02:31:50.766Z,0.00
2019-06-01T02:32:26.050Z,0.00
2019-06-01T02:33:02.412Z,0.00
2019-06-01T02:33:36.586Z,0.00
2019-06-01T02:34:11.874Z,0.00
2019-06-01T02:34:47.301Z,0.00
2019-06-01T02:35:22.821Z,0.00
2019-06-01T02:35:58.161Z,0.00
2019-06-01T02:36:33.444Z,0.00
2019-06-01T02:37:08.957Z,0.00
2019-06-01T02:37:44.186Z,0.00
2019-06-01T02:38:19.580Z,0.00
2019-06-01T02:38:56.409Z,0.00
2019-06-01T02:39:29.921Z,0.00
2019-06-01T02:40:05.652Z,0.00
2019-06-01T02:40:40.848Z,0.00
2019-06-01T02:41:16.380Z,0.00
2019-06-01T02:41:51.879Z,0.00
2019-06-01T02:42:27.000Z,0.00
2019-06-01T02:43:03.680Z,0.00
2019-06-01T02:43:37.628Z,0.00
2019-06-01T02:44:12.817Z,4.00
2019-06-01T02:44:47.982Z,4.00
2019-06-01T02:45:23.176Z,4.00
2019-06-01T02:45:58.218Z,4.00
2019-06-01T02:46:35.530Z,4.00
2019-06-01T02:47:08.833Z,4.00
2019-06-01T02:47:44.126Z,0.00
2019-06-01T02:48:19.442Z,0.00
2019-06-01T02:48:55.482Z,4.00
2019-06-01T02:49:29.812Z,4.00
2019-06-01T02:50:06.368Z,4.00
2019-06-01T02:50:40.631Z,4.00
2019-06-01T02:51:15.729Z,8.00
2019-06-01T02:51:51.048Z,4.00
2019-06-01T02:52:26.251Z,4.00
2019-06-01T02:53:01.699Z,4.00
2019-06-01T02:53:36.908Z,8.00
2019-06-01T02:54:12.336Z,8.00
2019-06-01T02:54:47.844Z,8.00
2019-06-01T02:55:23.176Z,8.00
2019-06-01T02:55:58.470Z,8.00
2019-06-01T02:56:33.797Z,8.00
2019-06-01T02:57:09.118Z,8.00
2019-06-01T02:57:44.335Z,12.00
2019-06-01T02:58:19.568Z,12.00
2019-06-01T02:58:56.025Z,12.00
2019-06-01T02:59:30.188Z,12.00
2019-06-01T03:00:06.629Z,16.00
2019-06-01T03:00:40.723Z,16.00
2019-06-01T03:01:16.456Z,16.00
2019-06-01T03:01:57.236Z,20.00
2019-06-01T03:02:27.488Z,20.00
2019-06-01T03:03:02.989Z,20.00
2019-06-01T03:03:38.230Z,20.00
2019-06-01T03:04:13.528Z,20.00
2019-06-01T03:04:49.064Z,24.00
2019-06-01T03:05:24.449Z,24.00
2019-06-01T03:05:59.872Z,24.00
2019-06-01T03:06:35.352Z,28.00
2019-06-01T03:07:10.771Z,32.00
2019-06-01T03:07:46.458Z,32.00
2019-06-01T03:08:22.084Z,32.00
2019-06-01T03:08:57.671Z,36.00
2019-06-01T03:09:32.818Z,40.00
2019-06-01T03:10:08.979Z,40.00
2019-06-01T03:10:43.651Z,44.00
2019-06-01T03:11:18.940Z,44.00
2019-06-01T03:11:54.664Z,44.00
2019-06-01T03:12:29.947Z,48.00
2019-06-01T03:13:06.155Z,52.00
2019-06-01T03:13:40.782Z,56.00
2019-06-01T03:14:16.312Z,56.00
2019-06-01T03:14:51.829Z,56.00
2019-06-01T03:15:27.245Z,64.00
2019-06-01T03:16:03.287Z,60.00
2019-06-01T03:16:40.094Z,64.00
2019-06-01T03:17:12.875Z,68.00
2019-06-01T03:17:48.086Z,76.00
2019-06-01T03:18:23.279Z,76.00
2019-06-01T03:18:59.591Z,76.00
2019-06-01T03:19:34.042Z,84.00
2019-06-01T03:20:09.365Z,88.00
2019-06-01T03:20:44.677Z,88.00
2019-06-01T03:21:19.997Z,96.00
2019-06-01T03:21:55.572Z,100.00
2019-06-01T03:22:30.800Z,104.00
2019-06-01T03:23:05.992Z,108.00
2019-06-01T03:23:41.320Z,112.00
2019-06-01T03:24:16.722Z,120.00
2019-06-01T03:24:52.075Z,120.00
2019-06-01T03:25:27.672Z,128.00
2019-06-01T03:26:04.198Z,132.00
2019-06-01T03:26:38.500Z,136.00
2019-06-01T03:27:13.816Z,144.00
2019-06-01T03:27:49.546Z,148.00
2019-06-01T03:28:24.981Z,156.00
2019-06-01T03:29:00.490Z,164.00
2019-06-01T03:29:36.097Z,172.00
2019-06-01T03:30:12.940Z,180.00
2019-06-01T03:30:46.619Z,188.00
2019-06-01T03:31:22.023Z,196.00
2019-06-01T03:32:17.641Z,204.00
2019-06-01T03:32:36.720Z,212.00
2019-06-01T03:33:10.347Z,224.00
2019-06-01T03:33:43.470Z,232.00
2019-06-01T03:34:19.230Z,244.00
2019-06-01T03:34:54.621Z,252.00
2019-06-01T03:35:30.040Z,268.00
2019-06-01T03:36:05.218Z,276.00
2019-06-01T03:36:40.664Z,284.00
2019-06-01T03:37:15.854Z,296.00
2019-06-01T03:37:51.504Z,308.00
2019-06-01T03:38:26.802Z,320.00
2019-06-01T03:39:02.327Z,332.00
2019-06-01T03:39:37.674Z,340.00
2019-06-01T03:40:23.139Z,356.00
2019-06-01T03:40:48.089Z,364.00
2019-06-01T03:41:23.702Z,384.00
2019-06-01T03:41:59.201Z,400.00
2019-06-01T03:42:34.921Z,416.00
2019-06-01T03:43:11.315Z,432.00
2019-06-01T03:43:45.939Z,444.00
2019-06-01T03:44:21.385Z,456.00
2019-06-01T03:44:56.581Z,464.00
2019-06-01T03:45:32.002Z,472.00
2019-06-01T03:46:08.666Z,480.00
2019-06-01T03:46:42.921Z,492.00
2019-06-01T03:47:18.312Z,500.00
2019-06-01T03:47:53.850Z,516.00
2019-06-01T03:48:29.247Z,536.00
2019-06-01T03:49:05.655Z,548.00
2019-06-01T03:49:40.228Z,564.00
2019-06-01T03:50:15.418Z,580.00
2019-06-01T03:50:51.020Z,596.00
2019-06-01T03:51:26.653Z,612.00
2019-06-01T03:52:02.685Z,620.00
2019-06-01T03:52:37.183Z,632.00
2019-06-01T03:53:12.635Z,644.00
2019-06-01T03:53:48.231Z,656.00
2019-06-01T03:54:23.783Z,672.00
2019-06-01T03:54:59.383Z,688.00
2019-06-01T03:55:35.018Z,708.00
2019-06-01T03:56:11.098Z,724.00
2019-06-01T03:56:45.926Z,744.00
2019-06-01T03:57:21.139Z,764.00
2019-06-01T03:57:56.465Z,780.00
2019-06-01T03:58:31.762Z,796.00
2019-06-01T03:59:07.276Z,804.00
2019-06-01T03:59:42.203Z,820.00
2019-06-01T04:00:17.740Z,828.00
2019-06-01T04:00:52.957Z,836.00
2019-06-01T04:01:28.568Z,848.00
2019-06-01T04:02:05.057Z,864.00
2019-06-01T04:02:39.307Z,880.00
2019-06-01T04:03:14.627Z,900.00
2019-06-01T04:03:50.058Z,920.00
2019-06-01T04:04:25.473Z,940.00
2019-06-01T04:05:01.173Z,956.00
2019-06-01T04:05:36.078Z,968.00
2019-06-01T04:06:11.597Z,972.00
2019-06-01T04:06:47.086Z,968.00
2019-06-01T04:07:22.214Z,968.00
2019-06-01T04:07:57.610Z,968.00
2019-06-01T04:08:32.935Z,972.00
2019-06-01T04:09:08.246Z,976.00
2019-06-01T04:09:43.492Z,996.00
2019-06-01T04:10:18.681Z,1016.00
2019-06-01T04:10:54.014Z,1036.00
2019-06-01T04:11:29.202Z,1052.00
2019-06-01T04:12:05.460Z,1068.00
2019-06-01T04:12:40.043Z,1080.00
2019-06-01T04:13:15.363Z,1092.00
2019-06-01T04:13:50.652Z,1096.00
2019-06-01T04:14:26.103Z,1096.00
2019-06-01T04:15:08.487Z,1092.00
2019-06-01T04:15:36.819Z,1084.00
2019-06-01T04:16:12.223Z,1076.00
2019-06-01T04:16:47.752Z,1072.00
2019-06-01T04:17:23.254Z,1064.00
2019-06-01T04:17:58.485Z,1064.00
2019-06-01T04:18:33.894Z,1068.00
2019-06-01T04:19:09.932Z,1072.00
2019-06-01T04:19:44.639Z,1084.00
2019-06-01T04:20:19.976Z,1100.00
2019-06-01T04:20:55.060Z,1108.00
2019-06-01T04:21:30.485Z,1116.00
2019-06-01T04:22:05.880Z,1128.00
2019-06-01T04:22:40.933Z,1152.00
2019-06-01T04:23:16.228Z,1176.00
2019-06-01T04:23:51.656Z,1200.00
2019-06-01T04:24:26.983Z,1232.00
2019-06-01T04:25:02.400Z,1264.00
2019-06-01T04:25:37.814Z,1288.00
2019-06-01T04:26:13.251Z,1308.00
2019-06-01T04:26:48.639Z,1332.00
2019-06-01T04:27:23.982Z,1364.00
2019-06-01T04:27:59.069Z,1400.00
2019-06-01T04:28:34.288Z,1436.00
2019-06-01T04:29:10.322Z,1468.00
2019-06-01T04:29:44.963Z,1488.00
2019-06-01T04:30:20.459Z,1512.00
2019-06-01T04:30:56.137Z,1520.00
2019-06-01T04:31:31.237Z,1548.00
2019-06-01T04:32:06.564Z,1584.00
2019-06-01T04:32:49.699Z,1628.00
2019-06-01T04:33:17.010Z,1672.00
2019-06-01T04:33:52.498Z,1696.00
2019-06-01T04:34:27.713Z,1712.00
2019-06-01T04:35:03.488Z,1720.00
2019-06-01T04:35:38.573Z,1716.00
2019-06-01T04:36:13.885Z,1704.00
2019-06-01T04:36:49.507Z,1696.00
2019-06-01T04:37:24.797Z,1688.00
2019-06-01T04:38:00.028Z,1688.00
2019-06-01T04:38:35.518Z,1692.00
2019-06-01T04:39:11.684Z,1704.00
2019-06-01T04:39:46.244Z,1724.00
2019-06-01T04:40:21.592Z,1744.00
2019-06-01T04:40:57.007Z,1784.00
2019-06-01T04:41:32.212Z,1808.00
2019-06-01T04:42:07.706Z,1840.00
2019-06-01T04:42:43.488Z,1872.00
2019-06-01T04:43:18.775Z,1912.00
2019-06-01T04:43:54.013Z,1952.00
2019-06-01T04:44:29.407Z,1976.00
2019-06-01T04:45:06.662Z,1984.00
2019-06-01T04:45:40.069Z,1984.00
2019-06-01T04:46:15.598Z,1972.00
2019-06-01T04:46:51.206Z,1932.00
2019-06-01T04:47:26.530Z,1884.00
2019-06-01T04:48:02.049Z,1848.00
2019-06-01T04:48:37.255Z,1828.00
2019-06-01T04:49:13.372Z,1856.00
2019-06-01T04:49:48.190Z,1888.00
2019-06-01T04:50:23.585Z,1904.00
2019-06-01T04:50:58.932Z,1900.00
2019-06-01T04:51:34.324Z,1868.00
2019-06-01T04:52:11.786Z,1844.00
2019-06-01T04:52:45.259Z,1852.00
2019-06-01T04:53:20.788Z,1896.00
2019-06-01T04:53:56.280Z,1936.00
2019-06-01T04:54:31.713Z,1940.00
2019-06-01T04:55:07.262Z,1900.00
2019-06-01T04:55:42.416Z,1828.00
2019-06-01T04:56:18.156Z,1772.00
2019-06-01T04:56:53.473Z,1740.00
2019-06-01T04:57:29.087Z,1732.00
2019-06-01T04:58:04.630Z,1756.00
2019-06-01T04:58:39.795Z,1804.00
2019-06-01T04:59:15.293Z,1844.00
2019-06-01T04:59:50.301Z,1888.00
2019-06-01T05:00:27.966Z,1860.00
2019-06-01T05:01:01.354Z,1828.00
2019-06-01T05:01:36.874Z,1832.00
2019-06-01T05:02:13.069Z,1848.00
2019-06-01T05:02:47.503Z,1856.00
2019-06-01T05:03:22.893Z,1824.00
2019-06-01T05:03:58.435Z,1816.00
2019-06-01T05:04:33.728Z,1740.00
2019-06-01T05:05:09.294Z,1688.00
2019-06-01T05:05:44.553Z,1668.00
2019-06-01T05:06:19.918Z,1616.00
2019-06-01T05:06:55.528Z,1644.00
2019-06-01T05:07:30.868Z,1712.00
2019-06-01T05:08:07.038Z,1816.00
2019-06-01T05:08:41.517Z,1972.00
2019-06-01T05:09:16.700Z,2080.00
2019-06-01T05:09:52.031Z,2136.00
2019-06-01T05:10:27.332Z,2164.00
2019-06-01T05:11:05.259Z,2180.00
2019-06-01T05:11:38.186Z,2172.00
2019-06-01T05:12:13.618Z,2180.00
2019-06-01T05:12:48.648Z,2136.00
2019-06-01T05:13:24.150Z,2192.00
2019-06-01T05:13:59.551Z,2168.00
2019-06-01T05:14:34.868Z,2200.00
2019-06-01T05:15:10.077Z,2256.00
2019-06-01T05:15:45.587Z,2296.00
2019-06-01T05:16:20.825Z,2336.00
2019-06-01T05:16:56.139Z,2372.00
2019-06-01T05:17:31.641Z,2404.00
2019-06-01T05:18:07.853Z,2432.00
2019-06-01T05:18:42.070Z,2424.00
2019-06-01T05:19:17.288Z,2412.00
2019-06-01T05:19:52.783Z,2416.00
2019-06-01T05:20:28.206Z,2416.00
2019-06-01T05:21:03.413Z,2456.00
2019-06-01T05:21:38.690Z,2456.00
2019-06-01T05:22:14.621Z,2472.00
2019-06-01T05:22:49.429Z,2480.00
2019-06-01T05:23:24.923Z,2524.00
2019-06-01T05:24:00.258Z,2548.00
2019-06-01T05:24:35.849Z,2572.00
2019-06-01T05:25:12.207Z,2600.00
2019-06-01T05:25:46.482Z,2636.00
2019-06-01T05:26:21.812Z,2656.00
2019-06-01T05:26:57.047Z,2696.00
2019-06-01T05:27:32.370Z,2732.00
2019-06-01T05:28:09.020Z,2784.00
2019-06-01T05:28:42.992Z,2832.00
2019-06-01T05:29:18.398Z,2876.00
2019-06-01T05:29:53.738Z,2924.00
2019-06-01T05:30:29.130Z,2976.00
2019-06-01T05:31:04.457Z,3012.00
2019-06-01T05:31:39.783Z,3052.00
2019-06-01T05:32:16.664Z,3112.00
2019-06-01T05:32:50.969Z,3164.00
2019-06-01T05:33:36.903Z,3264.00
2019-06-01T05:34:01.620Z,3360.00
2019-06-01T05:34:36.950Z,3420.00
2019-06-01T05:35:12.239Z,3476.00
2019-06-01T05:35:47.568Z,3528.00
2019-06-01T05:36:22.663Z,3584.00
2019-06-01T05:36:58.115Z,3652.00
2019-06-01T05:37:33.705Z,3696.00
2019-06-01T05:38:10.011Z,3820.00
2019-06-01T05:38:44.552Z,3892.00
2019-06-01T05:39:19.775Z,3948.00
2019-06-01T05:39:55.580Z,4024.00
2019-06-01T05:40:30.905Z,4116.00
2019-06-01T05:41:06.620Z,4208.00
2019-06-01T05:41:41.931Z,4268.00
2019-06-01T05:42:18.887Z,4328.00
2019-06-01T05:42:52.986Z,4392.00
2019-06-01T05:43:28.169Z,4412.00
2019-06-01T05:44:03.422Z,4468.00
2019-06-01T05:44:38.810Z,4424.00
2019-06-01T05:45:15.051Z,4304.00
2019-06-01T05:45:49.224Z,4124.00
2019-06-01T05:46:24.444Z,3984.00
2019-06-01T05:46:59.605Z,4692.00
2019-06-01T05:47:34.885Z,4832.00
2019-06-01T05:48:13.001Z,4856.00
2019-06-01T05:48:45.823Z,4628.00
2019-06-01T05:49:22.689Z,4892.00
2019-06-01T05:49:56.641Z,5244.00
2019-06-01T05:50:31.930Z,5552.00
2019-06-01T05:51:07.369Z,5768.00
2019-06-01T05:51:42.563Z,5696.00
2019-06-01T05:52:18.799Z,5600.00
2019-06-01T05:52:53.506Z,5496.00
2019-06-01T05:53:28.852Z,5840.00
2019-06-01T05:54:04.554Z,6168.00
2019-06-01T05:54:40.089Z,6968.00
2019-06-01T05:55:16.658Z,7672.00
2019-06-01T05:55:51.104Z,8192.00
2019-06-01T05:56:26.392Z,8900.00
2019-06-01T05:57:01.927Z,10376.00
2019-06-01T05:57:37.167Z,10724.00
2019-06-01T05:58:13.002Z,11160.00
2019-06-01T05:58:47.861Z,13508.00
2019-06-01T05:59:23.302Z,18592.00
2019-06-01T05:59:58.612Z,22528.00
2019-06-01T06:00:34.238Z,28160.00
2019-06-01T06:01:10.357Z,34976.00
2019-06-01T06:01:44.977Z,30176.00
2019-06-01T06:02:20.184Z,33792.00
2019-06-01T06:02:55.727Z,24384.00
2019-06-01T06:03:39.935Z,27392.00
2019-06-01T06:04:06.670Z,51392.00
2019-06-01T06:04:42.089Z,52000.00
2019-06-01T06:05:17.330Z,53696.00
2019-06-01T06:05:52.716Z,24288.00
2019-06-01T06:06:27.841Z,28800.00
2019-06-01T06:07:02.940Z,24640.00
2019-06-01T06:07:38.363Z,25248.00
2019-06-01T06:08:14.462Z,39904.00
2019-06-01T06:08:49.191Z,41056.00
2019-06-01T06:09:24.726Z,44544.00
2019-06-01T06:09:59.910Z,46176.00
2019-06-01T06:10:35.250Z,45504.00
2019-06-01T06:11:10.821Z,54528.00
2019-06-01T06:11:45.868Z,56672.00
2019-06-01T06:12:21.586Z,56000.00
2019-06-01T06:12:56.908Z,56288.00
2019-06-01T06:13:32.305Z,53056.00
2019-06-01T06:14:07.657Z,34048.00
2019-06-01T06:14:42.875Z,46176.00
2019-06-01T06:15:19.633Z,51904.00
2019-06-01T06:15:53.335Z,58176.00
2019-06-01T06:16:28.657Z,57216.00
2019-06-01T06:17:04.055Z,59616.00
2019-06-01T06:17:39.888Z,58208.00
2019-06-01T06:18:15.708Z,44256.00
2019-06-01T06:18:50.533Z,34240.00
2019-06-01T06:19:26.164Z,55616.00
2019-06-01T06:20:01.393Z,52768.00
2019-06-01T06:20:36.694Z,51616.00
2019-06-01T06:21:12.027Z,56896.00
2019-06-01T06:21:47.434Z,53792.00
2019-06-01T06:22:22.877Z,51904.00
2019-06-01T06:22:58.183Z,52928.00
2019-06-01T06:23:33.411Z,53664.00
2019-06-01T06:24:08.915Z,55360.00
2019-06-01T06:24:44.159Z,54720.00
2019-06-01T06:25:19.261Z,54880.00
2019-06-01T06:25:54.406Z,51008.00
2019-06-01T06:26:29.705Z,55328.00
2019-06-01T06:27:04.934Z,53568.00
2019-06-01T06:27:40.068Z,51200.00
2019-06-01T06:28:16.446Z,50048.00
2019-06-01T06:28:50.819Z,54208.00
2019-06-01T06:29:26.354Z,53824.00
2019-06-01T06:30:01.666Z,55264.00
2019-06-01T06:30:37.200Z,54784.00
2019-06-01T06:31:12.939Z,55296.00
2019-06-01T06:31:47.938Z,54304.00
2019-06-01T06:32:23.433Z,53184.00
2019-06-01T06:32:58.289Z,51168.00
2019-06-01T06:33:36.689Z,48096.00
2019-06-01T06:34:09.148Z,46400.00
2019-06-01T06:34:44.770Z,48928.00
2019-06-01T06:35:20.212Z,50304.00
2019-06-01T06:35:55.706Z,54880.00
2019-06-01T06:36:31.250Z,55136.00
2019-06-01T06:37:06.250Z,54784.00
2019-06-01T06:37:42.394Z,55072.00
2019-06-01T06:38:17.781Z,54880.00
2019-06-01T06:38:52.740Z,52192.00
2019-06-01T06:39:28.048Z,55360.00
2019-06-01T06:40:03.500Z,57952.00
2019-06-01T06:40:38.710Z,58784.00
2019-06-01T06:41:14.441Z,57120.00
2019-06-01T06:41:49.854Z,60000.00
2019-06-01T06:42:25.287Z,57952.00
2019-06-01T06:43:00.617Z,55808.00
2019-06-01T06:43:35.977Z,59552.00
2019-06-01T06:44:11.443Z,58304.00
2019-06-01T06:44:46.886Z,51328.00
2019-06-01T06:45:22.848Z,48096.00
2019-06-01T06:45:57.913Z,44544.00
2019-06-01T06:46:33.416Z,45184.00
2019-06-01T06:47:08.963Z,47520.00
2019-06-01T06:47:44.296Z,50560.00
2019-06-01T06:48:19.653Z,52128.00
2019-06-01T06:48:54.879Z,49568.00
2019-06-01T06:49:30.201Z,53216.00
2019-06-01T06:50:05.415Z,55584.00
2019-06-01T06:50:40.778Z,54624.00
2019-06-01T06:51:17.254Z,54560.00
2019-06-01T06:51:51.625Z,55776.00
2019-06-01T06:52:26.835Z,55424.00
2019-06-01T06:53:02.059Z,53536.00
2019-06-01T06:53:37.173Z,55264.00
2019-06-01T06:54:14.559Z,55392.00
2019-06-01T06:54:48.314Z,55392.00
2019-06-01T06:55:24.015Z,55872.00
2019-06-01T06:55:58.785Z,55680.00
2019-06-01T06:56:34.424Z,58336.00
2019-06-01T06:57:09.730Z,60064.00
2019-06-01T06:57:45.174Z,57920.00
2019-06-01T06:58:21.030Z,58048.00
2019-06-01T06:58:56.167Z,57504.00
2019-06-01T06:59:31.424Z,55264.00
2019-06-01T07:00:06.576Z,57120.00
2019-06-01T07:00:41.781Z,61856.00
2019-06-01T07:01:17.069Z,61856.00
2019-06-01T07:01:52.443Z,60576.00
2019-06-01T07:02:28.265Z,50848.00
2019-06-01T07:03:03.673Z,56320.00
2019-06-01T07:03:39.130Z,52928.00
2019-06-01T07:04:14.531Z,54336.00
2019-06-01T07:04:49.762Z,51968.00
2019-06-01T07:05:25.528Z,49760.00
2019-06-01T07:06:00.287Z,46560.00
2019-06-01T07:06:35.607Z,44608.00
2019-06-01T07:07:10.736Z,42240.00
2019-06-01T07:07:46.034Z,39040.00
2019-06-01T07:08:21.826Z,37728.00
2019-06-01T07:08:57.040Z,36384.00
2019-06-01T07:09:32.230Z,35136.00
2019-06-01T07:10:07.655Z,35680.00
2019-06-01T07:10:42.778Z,34368.00
2019-06-01T07:11:19.087Z,35488.00
2019-06-01T07:11:53.627Z,36320.00
2019-06-01T07:12:29.050Z,36352.00
2019-06-01T07:13:04.291Z,35648.00
2019-06-01T07:13:39.801Z,36192.00
2019-06-01T07:14:15.120Z,37184.00
2019-06-01T07:14:50.340Z,33216.00
2019-06-01T07:15:25.867Z,32448.00
2019-06-01T07:16:03.772Z,33728.00
2019-06-01T07:16:36.321Z,33920.00
2019-06-01T07:17:11.615Z,36032.00
2019-06-01T07:17:47.250Z,32448.00
2019-06-01T07:18:23.543Z,34656.00
2019-06-01T07:18:58.120Z,32704.00
2019-06-01T07:19:33.528Z,34496.00
2019-06-01T07:20:08.760Z,36416.00
2019-06-01T07:20:43.890Z,37600.00
2019-06-01T07:21:19.572Z,38912.00
2019-06-01T07:21:54.743Z,39520.00
2019-06-01T07:22:30.174Z,39904.00
2019-06-01T07:23:05.587Z,40672.00
2019-06-01T07:23:40.905Z,40160.00
2019-06-01T07:24:16.640Z,40160.00